Larry Tilley — WY2160 — position and weather

sailwx.info

Track history (hours):
 
Tides and Currents Weather Stations Pressure Air Temp Water Temp Dewpoint Dewpoint Depression Visibility Wind Speed Wind Dir Waves Ship Positions

Larry Tilley

Owner: SOUTHERN TOWING COMPANY LLC., MEMPHIS, TN. More information available from US FCC via Universal Licensing System and Coast Guard Vessel Documentation Center.

Last reported at 2018-Mar-22 10:07 UTC. Time now 2018-Apr-26 15:37 UTC.
Position N 38°37' W 090°11'.
Warning: this ship's position is 35 days out of date.

; draft 2.7 m.

Type: Towing. MMSI: 366919230.

Date/timePositionNaut miles runAvg speedWind from/ knotsBaromVisibWave heightAir tempDewpointWater temp
2018-Mar-22 10:07N 38°37' W 090°11'110.2
2018-Mar-22 10:00N 38°38' W 090°11'4 7.9
2018-Mar-22 09:30N 38°42' W 090°11'1 1.4
2018-Mar-22 09:00N 38°42' W 090°11'1 1.0
2018-Mar-22 08:30N 38°43' W 090°10'1 1.7
2018-Mar-22 07:59N 38°43' W 090°10'1 2.9
2018-Mar-22 07:30N 38°45' W 090°09'3 5.0
2018-Mar-22 07:00N 38°47' W 090°08'4 7.3
2018-Mar-22 06:30N 38°50' W 090°06'3 5.2
2018-Mar-22 06:00N 38°52' W 090°09'0 0.2
2018-Mar-22 05:30N 38°52' W 090°09'2 3.7
2018-Mar-22 05:00N 38°53' W 090°11'4 7.4
2018-Mar-22 04:30N 38°55' W 090°15'4 7.3
2018-Mar-22 04:00N 38°56' W 090°20'4 8.1
2018-Mar-22 03:30N 38°58' W 090°24'4 7.9
2018-Mar-22 03:00N 38°58' W 090°29'2 4.8
2018-Mar-22 02:30N 38°58' W 090°32'3 5.8
2018-Mar-22 02:00N 38°60' W 090°34'3 6.1
2018-Mar-22 01:30N 39°03' W 090°35'3 5.5
2018-Mar-22 01:00N 39°06' W 090°36'3 5.9
2018-Mar-22 00:30N 39°08' W 090°37'3 5.8
2018-Mar-21 23:58N 39°11' W 090°36'  
2018-Mar-15 15:33N 39°08' W 090°37'0 3.7
2018-Mar-15 15:27N 39°08' W 090°36'2 3.8
2018-Mar-15 14:58N 39°06' W 090°36'0 0.2
2018-Mar-15 14:30N 39°06' W 090°36'1 1.8
2018-Mar-15 14:00N 39°05' W 090°35'2 3.2
2018-Mar-15 13:30N 39°03' W 090°35'2 3.3
2018-Mar-15 13:00N 39°02' W 090°34'2 3.7
2018-Mar-15 12:30N 39°00' W 090°34'2 3.8
2018-Mar-15 12:00N 38°58' W 090°33'2 3.6
2018-Mar-15 11:30N 38°57' W 090°31'2 3.5
2018-Mar-15 11:00N 38°58' W 090°29'2 3.7
2018-Mar-15 10:30N 38°58' W 090°27'2 4.2
2018-Mar-15 10:00N 38°58' W 090°24'2 4.4
2018-Mar-15 09:30N 38°57' W 090°22'2 4.3
2018-Mar-15 09:00N 38°56' W 090°20'2 4.2
2018-Mar-15 08:30N 38°55' W 090°17'2 4.2
2018-Mar-15 08:00N 38°55' W 090°14'2 4.6
2018-Mar-15 07:30N 38°54' W 090°12'2 4.6
2018-Mar-15 07:00N 38°52' W 090°09'1 1.2
2018-Mar-15 06:30N 38°52' W 090°09'0 0.2
2018-Mar-15 05:58N 38°52' W 090°09'0 0.0
2018-Mar-15 05:30N 38°52' W 090°09'0 0.0
2018-Mar-15 05:00N 38°52' W 090°09'0 0.0
2018-Mar-15 04:30N 38°52' W 090°09'0 0.0
2018-Mar-15 04:00N 38°52' W 090°09'0 0.7
2018-Mar-15 03:30N 38°52' W 090°09'1 2.8
2018-Mar-15 03:00N 38°51' W 090°07'2 3.1
2018-Mar-15 02:30N 38°50' W 090°07'2 3.9
2018-Mar-15 02:00N 38°48' W 090°07'2 3.7
2018-Mar-15 01:30N 38°46' W 090°08'2 3.0
2018-Mar-15 01:00N 38°45' W 090°09'  
Track history (hours):
 
Tides and Currents Weather Stations Pressure Air Temp Water Temp Dewpoint Dewpoint Depression Visibility Wind Speed Wind Dir Waves Ship Positions

Larry Tilley

Owner: SOUTHERN TOWING COMPANY LLC., MEMPHIS, TN. More information available from US FCC via Universal Licensing System and Coast Guard Vessel Documentation Center.

Last reported at 2018-Mar-22 10:07 UTC. Time now 2018-Apr-26 15:37 UTC.
Position N 38°37' W 090°11'.
Warning: this ship's position is 35 days out of date.

; draft 2.7 m.

Type: Towing. MMSI: 366919230.

Date/timePositionNaut miles runAvg speedWind from/ knotsBaromVisibWave heightAir tempDewpointWater temp
2018-Mar-22 10:07N 38°37' W 090°11'110.2
2018-Mar-22 10:00N 38°38' W 090°11'4 7.9
2018-Mar-22 09:30N 38°42' W 090°11'1 1.4
2018-Mar-22 09:00N 38°42' W 090°11'1 1.0
2018-Mar-22 08:30N 38°43' W 090°10'1 1.7
2018-Mar-22 07:59N 38°43' W 090°10'1 2.9
2018-Mar-22 07:30N 38°45' W 090°09'3 5.0
2018-Mar-22 07:00N 38°47' W 090°08'4 7.3
2018-Mar-22 06:30N 38°50' W 090°06'3 5.2
2018-Mar-22 06:00N 38°52' W 090°09'0 0.2
2018-Mar-22 05:30N 38°52' W 090°09'2 3.7
2018-Mar-22 05:00N 38°53' W 090°11'4 7.4
2018-Mar-22 04:30N 38°55' W 090°15'4 7.3
2018-Mar-22 04:00N 38°56' W 090°20'4 8.1
2018-Mar-22 03:30N 38°58' W 090°24'4 7.9
2018-Mar-22 03:00N 38°58' W 090°29'2 4.8
2018-Mar-22 02:30N 38°58' W 090°32'3 5.8
2018-Mar-22 02:00N 38°60' W 090°34'3 6.1
2018-Mar-22 01:30N 39°03' W 090°35'3 5.5
2018-Mar-22 01:00N 39°06' W 090°36'3 5.9
2018-Mar-22 00:30N 39°08' W 090°37'3 5.8
2018-Mar-21 23:58N 39°11' W 090°36'  
2018-Mar-15 15:33N 39°08' W 090°37'0 3.7
2018-Mar-15 15:27N 39°08' W 090°36'2 3.8
2018-Mar-15 14:58N 39°06' W 090°36'0 0.2
2018-Mar-15 14:30N 39°06' W 090°36'1 1.8
2018-Mar-15 14:00N 39°05' W 090°35'2 3.2
2018-Mar-15 13:30N 39°03' W 090°35'2 3.3
2018-Mar-15 13:00N 39°02' W 090°34'2 3.7
2018-Mar-15 12:30N 39°00' W 090°34'2 3.8
2018-Mar-15 12:00N 38°58' W 090°33'2 3.6
2018-Mar-15 11:30N 38°57' W 090°31'2 3.5
2018-Mar-15 11:00N 38°58' W 090°29'2 3.7
2018-Mar-15 10:30N 38°58' W 090°27'2 4.2
2018-Mar-15 10:00N 38°58' W 090°24'2 4.4
2018-Mar-15 09:30N 38°57' W 090°22'2 4.3
2018-Mar-15 09:00N 38°56' W 090°20'2 4.2
2018-Mar-15 08:30N 38°55' W 090°17'2 4.2
2018-Mar-15 08:00N 38°55' W 090°14'2 4.6
2018-Mar-15 07:30N 38°54' W 090°12'2 4.6
2018-Mar-15 07:00N 38°52' W 090°09'1 1.2
2018-Mar-15 06:30N 38°52' W 090°09'0 0.2
2018-Mar-15 05:58N 38°52' W 090°09'0 0.0
2018-Mar-15 05:30N 38°52' W 090°09'0 0.0
2018-Mar-15 05:00N 38°52' W 090°09'0 0.0
2018-Mar-15 04:30N 38°52' W 090°09'0 0.0
2018-Mar-15 04:00N 38°52' W 090°09'0 0.7
2018-Mar-15 03:30N 38°52' W 090°09'1 2.8
2018-Mar-15 03:00N 38°51' W 090°07'2 3.1
2018-Mar-15 02:30N 38°50' W 090°07'2 3.9
2018-Mar-15 02:00N 38°48' W 090°07'2 3.7
2018-Mar-15 01:30N 38°46' W 090°08'2 3.0
2018-Mar-15 01:00N 38°45' W 090°09'  

Dump ship's entire track history